Time;durP1;ratioP1;P1;durP2;ratioP2;P2;SDS_P1;SDS_P2;PMS_P1;PMS_P2;Temp;Humidity;BMP_temperature;BMP_pressure;BME280_temperature;BME280_humidity;BME280_pressure;Samples;Min_cycle;Max_cycle;Signal;HPM_P1;HPM_P2
2021/09/30 00:01:45;;;;;;;19.82;13.70;;;28.10;99.90;;;;;;1801686;80;21151;-88
2021/09/30 00:04:16;;;;;;;20.20;14.60;;;28.20;99.90;;;;;;1881351;75;21584;-89
2021/09/30 00:06:47;;;;;;;17.57;13.65;;;28.20;99.90;;;;;;1846218;76;21134;-89
2021/09/30 00:09:18;;;;;;;20.75;13.60;;;28.20;99.90;;;;;;1874405;74;21161;-89
2021/09/30 00:11:53;;;;;;;19.15;14.40;;;28.20;99.90;;;;;;1891502;75;21090;-89
2021/09/30 00:14:38;;;;;;;22.60;14.13;;;28.20;99.90;;;;;;1885797;74;21053;-88
2021/09/30 00:40:01;;;;;;;16.32;12.98;;;28.70;99.90;;;;;;1900422;75;21694;-80
2021/09/30 00:52:48;;;;;;;12.30;9.05;;;28.80;99.90;;;;;;1892973;74;21613;-83
2021/09/30 01:52:08;;;;;;;13.00;9.05;;;29.50;99.90;;;;;;1893719;73;21101;-79
2021/09/30 02:22:32;;;;;;;12.13;8.50;;;30.10;99.90;;;;;;1861855;75;20225;-81
2021/09/30 02:27:38;;;;;;;9.78;8.00;;;30.00;99.90;;;;;;1868446;74;21125;-84
2021/09/30 03:00:43;;;;;;;8.60;6.47;;;30.00;98.40;;;;;;1838358;77;21131;-81
2021/09/30 03:03:15;;;;;;;8.50;6.25;;;30.10;98.30;;;;;;1857120;75;21211;-81
2021/09/30 03:05:53;;;;;;;9.98;7.17;;;30.10;97.90;;;;;;1839148;76;21112;-80
2021/09/30 03:08:24;;;;;;;10.10;6.58;;;30.10;98.10;;;;;;1841357;76;21659;-80
2021/09/30 03:10:57;;;;;;;8.08;6.78;;;30.10;98.10;;;;;;1853622;76;21155;-81
2021/09/30 03:13:31;;;;;;;7.75;6.75;;;30.20;98.40;;;;;;1831573;76;21532;-82
2021/09/30 03:16:08;;;;;;;9.93;6.50;;;30.10;97.80;;;;;;1874954;76;21620;-81
2021/09/30 03:18:49;;;;;;;10.50;6.78;;;30.20;97.70;;;;;;1845796;76;21633;-82
2021/09/30 03:23:46;;;;;;;14.47;6.75;;;30.30;97.70;;;;;;1845385;77;21092;-78
2021/09/30 03:26:18;;;;;;;10.58;7.33;;;30.40;97.10;;;;;;1900829;73;21165;-80
2021/09/30 03:28:50;;;;;;;11.33;6.47;;;30.40;97.10;;;;;;1871420;75;21163;-80
2021/09/30 03:31:23;;;;;;;10.72;7.70;;;30.50;97.10;;;;;;1848533;73;21100;-80
2021/09/30 03:33:56;;;;;;;8.35;6.87;;;30.60;97.20;;;;;;1867778;76;21103;-80
2021/09/30 03:36:27;;;;;;;9.08;6.65;;;30.60;96.50;;;;;;1859528;73;21170;-80
2021/09/30 03:39:00;;;;;;;10.68;7.15;;;30.70;96.60;;;;;;1887025;74;21519;-80
2021/09/30 03:41:31;;;;;;;10.40;6.05;;;30.60;97.60;;;;;;1918920;74;21165;-79
2021/09/30 03:44:02;;;;;;;11.50;7.35;;;30.60;96.60;;;;;;1921726;74;21382;-80
2021/09/30 03:46:33;;;;;;;9.38;6.33;;;30.60;96.70;;;;;;1860469;75;21165;-78
2021/09/30 03:49:10;;;;;;;8.95;6.90;;;30.60;96.90;;;;;;1917510;74;21157;-80
2021/09/30 03:54:23;;;;;;;11.10;7.10;;;30.60;96.90;;;;;;1893321;74;21159;-79
2021/09/30 03:56:50;;;;;;;13.88;7.55;;;30.60;97.50;;;;;;1845480;76;21178;-81
2021/09/30 03:59:21;;;;;;;9.73;7.33;;;30.60;98.00;;;;;;1825796;77;21543;-81
2021/09/30 04:01:43;;;;;;;8.10;6.28;;;30.60;97.10;;;;;;1914229;74;21134;-82
2021/09/30 04:04:15;;;;;;;8.50;6.42;;;30.60;96.30;;;;;;1923098;74;21531;-78
2021/09/30 04:06:46;;;;;;;8.90;6.33;;;30.60;96.10;;;;;;1917718;74;21096;-79
2021/09/30 04:09:16;;;;;;;8.73;5.97;;;30.70;96.00;;;;;;1931858;74;21420;-79
2021/09/30 04:11:47;;;;;;;8.65;6.40;;;30.80;95.50;;;;;;1911611;74;21096;-82
2021/09/30 04:14:18;;;;;;;10.35;6.28;;;31.00;95.50;;;;;;1894206;75;21149;-80
2021/09/30 04:16:49;;;;;;;8.30;6.28;;;31.10;95.70;;;;;;1892692;75;21170;-81
2021/09/30 04:19:22;;;;;;;9.78;6.17;;;31.20;95.90;;;;;;1891024;75;21145;-79
2021/09/30 04:21:55;;;;;;;7.85;6.20;;;31.40;95.30;;;;;;1897475;74;21233;-80
2021/09/30 04:24:26;;;;;;;8.38;7.30;;;31.40;95.30;;;;;;1921598;74;21146;-82
2021/09/30 04:26:57;;;;;;;10.38;7.25;;;31.40;94.80;;;;;;1888881;75;21104;-81
2021/09/30 04:29:28;;;;;;;13.03;7.87;;;31.40;94.70;;;;;;1854753;75;21121;-82
2021/09/30 04:31:59;;;;;;;9.90;6.58;;;31.40;95.00;;;;;;1876595;74;21123;-82
2021/09/30 04:34:34;;;;;;;6.62;5.50;;;31.30;94.90;;;;;;1927112;74;21131;-82
2021/09/30 04:37:05;;;;;;;8.93;5.45;;;31.30;94.60;;;;;;1924889;74;21624;-81
2021/09/30 04:39:36;;;;;;;8.40;5.60;;;31.30;94.20;;;;;;1922016;74;21559;-81
2021/09/30 04:42:07;;;;;;;6.58;5.87;;;31.20;94.00;;;;;;1916714;74;21512;-81
2021/09/30 04:44:38;;;;;;;7.95;6.00;;;31.20;94.20;;;;;;1906412;73;21161;-82
2021/09/30 04:47:09;;;;;;;7.22;5.72;;;31.20;93.90;;;;;;1886703;74;21166;-80
2021/09/30 04:49:41;;;;;;;6.72;5.55;;;31.20;94.10;;;;;;1863120;76;21130;-80
2021/09/30 04:52:12;;;;;;;8.70;5.83;;;31.30;94.20;;;;;;1908214;72;21534;-79
2021/09/30 04:54:43;;;;;;;9.28;5.70;;;31.40;94.30;;;;;;1849041;75;21136;-80
2021/09/30 04:57:14;;;;;;;12.55;7.67;;;31.50;95.00;;;;;;1860310;74;21237;-83
2021/09/30 04:59:45;;;;;;;9.60;6.60;;;31.50;94.80;;;;;;1919519;74;21170;-80
2021/09/30 05:02:17;;;;;;;7.15;5.95;;;31.50;95.00;;;;;;1883440;75;22241;-82
2021/09/30 05:04:48;;;;;;;8.30;6.10;;;31.50;94.90;;;;;;1883568;76;21096;-83
2021/09/30 05:07:18;;;;;;;7.30;6.10;;;31.50;95.60;;;;;;1885519;75;21171;-83
2021/09/30 05:10:01;;;;;;;6.45;5.47;;;31.50;94.60;;;;;;1884469;74;21068;-84
2021/09/30 05:12:26;;;;;;;6.45;5.05;;;31.50;94.10;;;;;;1882141;76;21636;-84
2021/09/30 05:14:58;;;;;;;9.15;5.70;;;31.60;93.20;;;;;;1883248;74;21099;-85
2021/09/30 05:17:32;;;;;;;6.67;5.62;;;31.70;93.40;;;;;;1884563;74;21626;-83
2021/09/30 05:20:12;;;;;;;7.47;5.60;;;31.80;93.30;;;;;;1831272;76;21160;-83
2021/09/30 05:22:43;;;;;;;6.90;6.15;;;32.00;92.30;;;;;;1861340;74;21132;-84
2021/09/30 05:25:14;;;;;;;7.17;4.95;;;32.10;92.20;;;;;;1900624;74;21174;-85
2021/09/30 05:27:45;;;;;;;8.68;5.90;;;32.30;91.70;;;;;;1913015;75;21104;-84
2021/09/30 05:30:15;;;;;;;9.83;6.17;;;32.40;91.90;;;;;;1908502;75;21068;-84
2021/09/30 05:32:47;;;;;;;7.47;5.85;;;32.60;92.10;;;;;;1908527;73;21151;-84
2021/09/30 05:35:19;;;;;;;8.70;5.97;;;32.80;90.50;;;;;;1895844;75;21185;-83
2021/09/30 05:37:50;;;;;;;6.72;4.62;;;32.90;90.10;;;;;;1887021;74;21100;-84
2021/09/30 05:40:23;;;;;;;5.50;4.85;;;33.10;89.60;;;;;;1876037;75;21639;-83
2021/09/30 05:42:54;;;;;;;6.45;5.33;;;33.30;89.50;;;;;;1854227;74;21206;-83
2021/09/30 05:45:25;;;;;;;5.62;4.45;;;33.40;88.50;;;;;;1902083;74;21096;-81
2021/09/30 05:47:56;;;;;;;5.55;3.98;;;33.60;86.80;;;;;;1903383;74;21136;-82
2021/09/30 05:50:30;;;;;;;8.73;4.90;;;33.60;85.40;;;;;;1875266;74;21545;-82
2021/09/30 05:52:59;;;;;;;6.17;4.87;;;33.70;85.40;;;;;;1874931;76;21093;-82
2021/09/30 05:55:30;;;;;;;6.42;4.75;;;33.80;85.20;;;;;;1870983;76;21152;-86
2021/09/30 05:58:01;;;;;;;4.92;4.40;;;33.80;83.40;;;;;;1875967;76;21100;-82
2021/09/30 06:00:42;;;;;;;6.05;4.37;;;33.80;83.00;;;;;;1853955;76;21484;-82
2021/09/30 06:08:10;;;;;;;5.58;4.22;;;34.00;80.70;;;;;;1901560;75;21215;-79
2021/09/30 06:16:14;;;;;;;5.10;4.28;;;33.70;78.40;;;;;;1841619;77;21121;-81
2021/09/30 06:18:42;;;;;;;5.37;4.10;;;33.70;79.80;;;;;;1845543;77;21144;-81
2021/09/30 06:21:13;;;;;;;5.00;4.22;;;33.80;78.60;;;;;;1845877;78;21137;-82
2021/09/30 06:23:49;;;;;;;6.22;4.70;;;33.80;79.10;;;;;;1845547;76;21545;-82
2021/09/30 06:26:28;;;;;;;7.53;4.33;;;33.90;80.00;;;;;;1836266;76;21281;-80
2021/09/30 06:29:03;;;;;;;5.70;4.53;;;33.80;80.20;;;;;;1830602;77;21574;-77
2021/09/30 06:31:33;;;;;;;4.65;4.10;;;33.80;80.00;;;;;;1775098;78;21196;-78
2021/09/30 06:34:05;;;;;;;8.30;4.75;;;33.80;81.00;;;;;;1850388;76;21212;-78
2021/09/30 06:36:36;;;;;;;6.08;4.67;;;33.80;80.30;;;;;;1863063;76;21236;-78
2021/09/30 06:39:06;;;;;;;4.90;4.15;;;33.70;80.70;;;;;;1835306;77;21196;-77
2021/09/30 06:41:37;;;;;;;6.83;5.10;;;33.80;81.80;;;;;;1842810;76;21149;-79
2021/09/30 06:44:09;;;;;;;6.92;4.75;;;33.80;80.80;;;;;;1865905;75;21137;-78
2021/09/30 06:46:40;;;;;;;5.65;4.30;;;33.90;82.20;;;;;;1836258;77;21134;-78
2021/09/30 06:49:11;;;;;;;5.62;4.60;;;33.90;80.70;;;;;;1829589;77;21137;-78
2021/09/30 06:51:42;;;;;;;6.47;4.80;;;33.80;81.30;;;;;;1869657;75;21162;-78
2021/09/30 06:54:13;;;;;;;5.17;4.10;;;33.70;82.00;;;;;;1873999;74;21213;-78
2021/09/30 06:56:48;;;;;;;5.97;4.97;;;33.50;83.00;;;;;;1825792;76;21195;-76
2021/09/30 06:59:21;;;;;;;6.20;5.35;;;33.40;83.90;;;;;;1875383;75;21100;-77
2021/09/30 07:01:49;;;;;;;5.97;4.75;;;33.20;83.60;;;;;;1880382;74;21549;-76
2021/09/30 07:04:20;;;;;;;5.87;4.70;;;33.10;83.20;;;;;;1843834;77;21135;-77
2021/09/30 07:06:53;;;;;;;8.43;5.10;;;33.00;83.90;;;;;;1868687;76;21266;-77
2021/09/30 07:09:23;;;;;;;6.00;5.15;;;32.90;84.90;;;;;;1878567;75;21177;-78
2021/09/30 07:11:55;;;;;;;6.37;5.12;;;32.80;85.70;;;;;;1866365;75;21709;-80
2021/09/30 07:14:25;;;;;;;6.80;5.42;;;32.80;85.90;;;;;;1867368;74;21159;-78
2021/09/30 07:16:56;;;;;;;9.10;5.50;;;32.70;86.80;;;;;;1849735;76;21120;-79
2021/09/30 07:19:27;;;;;;;6.70;4.85;;;32.60;87.10;;;;;;1884278;74;21132;-77
2021/09/30 07:21:58;;;;;;;9.00;5.58;;;32.60;87.50;;;;;;1878921;76;21240;-78
2021/09/30 07:24:29;;;;;;;5.97;4.90;;;32.50;87.00;;;;;;1886510;74;21182;-78
2021/09/30 07:27:01;;;;;;;6.65;5.10;;;32.50;88.00;;;;;;1884271;74;21595;-77
2021/09/30 07:29:32;;;;;;;7.10;5.50;;;32.40;87.90;;;;;;1862990;75;21280;-78
2021/09/30 07:32:04;;;;;;;7.80;5.83;;;32.40;88.20;;;;;;1876814;74;21673;-79
2021/09/30 07:34:36;;;;;;;8.13;5.22;;;32.30;88.50;;;;;;1879867;75;21606;-78
2021/09/30 07:37:07;;;;;;;7.30;5.20;;;32.30;88.30;;;;;;1871218;75;21222;-78
2021/09/30 07:39:39;;;;;;;9.03;5.37;;;32.20;89.80;;;;;;1856070;74;21154;-79
2021/09/30 07:42:24;;;;;;;9.28;6.35;;;32.20;89.50;;;;;;1839832;75;21096;-78
2021/09/30 07:44:52;;;;;;;7.62;5.22;;;32.20;88.00;;;;;;1859831;75;21164;-79
2021/09/30 07:47:24;;;;;;;7.33;4.95;;;32.20;87.20;;;;;;1825013;77;21180;-79
2021/09/30 07:49:56;;;;;;;6.80;5.10;;;32.30;85.30;;;;;;1861956;75;21143;-79
2021/09/30 07:52:29;;;;;;;5.08;4.22;;;32.40;85.00;;;;;;1887887;74;21167;-78
2021/09/30 07:55:12;;;;;;;6.28;4.75;;;32.50;85.20;;;;;;1881663;74;21106;-78
2021/09/30 07:57:41;;;;;;;;;;;32.50;85.50;;;;;;1890942;74;21146;-79
2021/09/30 08:00:12;;;;;;;6.08;4.40;;;32.60;85.90;;;;;;1872989;75;20199;-78
2021/09/30 08:02:43;;;;;;;6.50;4.80;;;32.70;85.40;;;;;;1890050;75;21685;-79
2021/09/30 08:05:14;;;;;;;6.35;4.53;;;32.80;85.70;;;;;;1884039;73;21095;-78
2021/09/30 08:07:47;;;;;;;7.33;4.67;;;32.80;86.40;;;;;;1873615;75;21161;-80
2021/09/30 08:10:17;;;;;;;6.30;4.53;;;32.90;86.00;;;;;;1853984;75;21237;-79
2021/09/30 08:12:48;;;;;;;10.70;5.58;;;33.00;85.50;;;;;;1880045;73;22242;-79
2021/09/30 08:15:22;;;;;;;13.58;5.42;;;33.10;87.10;;;;;;1889229;74;21154;-78
2021/09/30 08:17:54;;;;;;;8.73;4.58;;;33.10;86.70;;;;;;1852758;75;21102;-77
2021/09/30 08:20:30;;;;;;;6.95;4.45;;;33.20;86.80;;;;;;1806044;77;21153;-81
2021/09/30 08:23:07;;;;;;;7.62;4.72;;;33.20;85.50;;;;;;1883720;74;21193;-78
2021/09/30 08:25:45;;;;;;;6.83;4.87;;;33.30;85.50;;;;;;1874959;74;21136;-78
2021/09/30 08:28:29;;;;;;;6.05;5.03;;;33.20;85.00;;;;;;1850508;74;21155;-80
2021/09/30 08:31:01;;;;;;;7.17;4.70;;;33.20;85.70;;;;;;1872225;74;21221;-81
2021/09/30 08:33:32;;;;;;;8.13;4.40;;;33.20;85.40;;;;;;1894051;74;21147;-83
2021/09/30 08:36:08;;;;;;;6.97;4.65;;;33.10;85.20;;;;;;1891620;74;21199;-83
2021/09/30 08:38:42;;;;;;;7.55;4.72;;;33.00;85.10;;;;;;1887261;74;21174;-80
2021/09/30 08:41:20;;;;;;;6.05;4.70;;;33.00;84.90;;;;;;1890293;74;21163;-80
2021/09/30 08:43:51;;;;;;;7.80;5.28;;;33.00;85.50;;;;;;1868598;75;21322;-80
2021/09/30 08:46:22;;;;;;;6.62;4.95;;;33.00;86.50;;;;;;1889490;74;21201;-79
2021/09/30 08:48:54;;;;;;;9.08;5.12;;;32.90;85.20;;;;;;1882447;74;21162;-81
2021/09/30 08:51:28;;;;;;;6.03;4.33;;;33.00;85.30;;;;;;1886553;75;21206;-79
2021/09/30 08:54:00;;;;;;;5.70;4.28;;;33.10;85.20;;;;;;1889167;74;21175;-80
2021/09/30 08:56:33;;;;;;;4.70;4.20;;;33.10;84.90;;;;;;1861469;75;21124;-80
2021/09/30 08:59:07;;;;;;;6.22;4.80;;;33.10;83.90;;;;;;1842988;76;21724;-80
2021/09/30 09:01:40;;;;;;;;;;;33.10;84.60;;;;;;1882480;75;21190;-81
2021/09/30 09:04:13;;;;;;;8.50;4.55;;;33.10;85.00;;;;;;1869158;75;20159;-79
2021/09/30 09:06:47;;;;;;;6.45;4.42;;;33.10;85.00;;;;;;1898914;74;21607;-79
2021/09/30 09:09:23;;;;;;;5.58;4.47;;;33.10;85.70;;;;;;1918581;74;21141;-79
2021/09/30 09:12:06;;;;;;;5.83;4.75;;;33.00;85.70;;;;;;1917288;74;21629;-80
2021/09/30 09:14:40;;;;;;;7.83;5.25;;;33.00;85.20;;;;;;1890452;75;21614;-81
2021/09/30 09:17:13;;;;;;;6.97;5.03;;;33.00;85.00;;;;;;1897093;75;21119;-83
2021/09/30 09:19:46;;;;;;;7.22;4.90;;;33.10;84.80;;;;;;1897001;75;21166;-84
2021/09/30 09:22:22;;;;;;;6.12;4.80;;;33.00;85.10;;;;;;1888562;74;21088;-86
2021/09/30 09:24:58;;;;;;;7.03;4.35;;;33.00;85.20;;;;;;1873181;74;21109;-86
2021/09/30 09:27:33;;;;;;;7.80;4.83;;;33.00;85.30;;;;;;1853339;75;21128;-88
2021/09/30 09:30:10;;;;;;;11.15;5.28;;;32.90;85.90;;;;;;1874807;73;21161;-88
2021/09/30 09:32:44;;;;;;;6.62;4.70;;;32.90;85.80;;;;;;1878172;75;21223;-90
2021/09/30 09:35:44;;;;;;;8.53;5.28;;;32.90;86.10;;;;;;1872959;74;21137;-89
2021/09/30 09:38:27;;;;;;;5.80;4.58;;;32.90;86.10;;;;;;1859560;74;21513;-87
2021/09/30 09:41:01;;;;;;;6.20;5.15;;;32.80;86.50;;;;;;1847147;78;21161;-87
2021/09/30 09:43:35;;;;;;;7.12;5.05;;;32.80;86.70;;;;;;1847003;78;21195;-87
2021/09/30 09:55:25;;;;;;;7.08;5.12;;;32.70;84.90;;;;;;1683301;84;21180;-87
2021/09/30 09:57:59;;;;;;;5.75;4.60;;;32.60;85.10;;;;;;1814934;77;21189;-87
2021/09/30 10:00:31;;;;;;;9.18;6.00;;;32.60;85.70;;;;;;1800551;78;21210;-87
2021/09/30 10:03:05;;;;;;;6.85;5.17;;;32.60;85.60;;;;;;1814919;78;21734;-87
2021/09/30 10:05:36;;;;;;;6.35;4.35;;;32.60;85.50;;;;;;1785602;78;21128;-88
2021/09/30 10:08:17;;;;;;;10.18;5.72;;;32.50;85.20;;;;;;1804742;78;21186;-89
2021/09/30 10:10:58;;;;;;;10.85;5.40;;;32.50;85.40;;;;;;1822233;77;21183;-88
2021/09/30 10:13:35;;;;;;;7.58;5.78;;;32.60;85.80;;;;;;1827558;78;21179;-87
2021/09/30 10:16:03;;;;;;;7.87;4.87;;;32.50;86.10;;;;;;1794230;78;21179;-89
2021/09/30 10:18:34;;;;;;;6.08;4.58;;;32.40;85.80;;;;;;1743361;81;21157;-86
2021/09/30 10:21:05;;;;;;;7.78;5.20;;;32.50;86.40;;;;;;1784104;78;21224;-88
2021/09/30 10:23:38;;;;;;;6.80;4.65;;;32.40;86.50;;;;;;1828853;76;21503;-89
2021/09/30 10:26:12;;;;;;;7.35;5.58;;;32.40;86.80;;;;;;1810258;78;21167;-88
2021/09/30 10:28:46;;;;;;;6.05;4.53;;;32.30;87.10;;;;;;1810497;79;21123;-87
2021/09/30 10:31:19;;;;;;;7.55;5.42;;;32.40;87.40;;;;;;1810110;79;21209;-87
2021/09/30 10:33:52;;;;;;;5.83;5.03;;;32.30;87.80;;;;;;1846427;75;21076;-87
2021/09/30 10:36:30;;;;;;;9.53;5.80;;;32.30;88.30;;;;;;1871838;75;21159;-87
2021/09/30 10:39:04;;;;;;;8.45;5.28;;;32.30;88.50;;;;;;1874001;75;21150;-87
2021/09/30 10:41:37;;;;;;;6.40;5.00;;;32.20;88.30;;;;;;1871411;75;21622;-87
2021/09/30 10:44:10;;;;;;;6.85;5.05;;;32.20;88.30;;;;;;1884338;73;21201;-87
2021/09/30 10:46:46;;;;;;;7.80;5.78;;;32.10;88.20;;;;;;1873397;75;21745;-87
2021/09/30 10:49:19;;;;;;;8.50;5.25;;;32.10;88.40;;;;;;1880000;74;21178;-89
2021/09/30 10:51:53;;;;;;;5.60;4.65;;;32.00;88.40;;;;;;1882992;74;21535;-87
2021/09/30 10:54:23;;;;;;;8.15;4.42;;;32.00;88.30;;;;;;1877775;75;21100;-87
2021/09/30 10:56:55;;;;;;;6.00;5.00;;;32.00;88.30;;;;;;1882770;74;21112;-87
2021/09/30 10:59:28;;;;;;;6.60;5.55;;;31.90;88.20;;;;;;1863101;74;21110;-87
2021/09/30 11:02:01;;;;;;;7.90;5.67;;;31.90;88.60;;;;;;1852661;77;21169;-86
2021/09/30 11:04:35;;;;;;;9.90;7.15;;;31.90;89.00;;;;;;1854975;76;21136;-87
2021/09/30 11:07:08;;;;;;;9.50;7.33;;;31.80;89.60;;;;;;1843980;76;21133;-86
2021/09/30 11:09:39;;;;;;;9.83;7.67;;;31.80;90.00;;;;;;1849488;77;21235;-87
2021/09/30 11:12:12;;;;;;;18.37;8.60;;;31.80;90.00;;;;;;1852184;77;21094;-86
2021/09/30 11:14:45;;;;;;;10.82;7.20;;;31.80;90.20;;;;;;1852549;77;21098;-86
2021/09/30 11:17:18;;;;;;;10.05;6.62;;;31.70;90.10;;;;;;1850210;76;21149;-86
2021/09/30 11:19:51;;;;;;;10.68;6.50;;;31.70;90.10;;;;;;1852335;76;21168;-87
2021/09/30 11:22:24;;;;;;;8.65;6.15;;;31.60;90.20;;;;;;1846988;78;21097;-87
2021/09/30 11:24:57;;;;;;;9.38;7.17;;;31.60;90.30;;;;;;1845353;76;21211;-87
2021/09/30 11:27:30;;;;;;;9.28;6.92;;;31.60;90.40;;;;;;1851769;77;21165;-86
2021/09/30 11:30:04;;;;;;;10.08;6.62;;;31.60;90.50;;;;;;1850456;75;21160;-88
2021/09/30 11:32:34;;;;;;;10.78;7.05;;;31.60;90.60;;;;;;1853634;75;21629;-86
2021/09/30 11:35:08;;;;;;;10.43;7.42;;;31.60;90.70;;;;;;1848483;76;21179;-86
2021/09/30 11:37:42;;;;;;;11.28;8.28;;;31.50;90.80;;;;;;1846746;76;21143;-86
2021/09/30 11:40:15;;;;;;;12.53;9.15;;;31.50;90.90;;;;;;1842604;77;21080;-88
2021/09/30 11:42:49;;;;;;;11.80;8.95;;;31.50;91.00;;;;;;1846458;77;21571;-87
2021/09/30 11:45:22;;;;;;;12.13;8.83;;;31.50;91.20;;;;;;1868701;72;21189;-85
2021/09/30 11:47:55;;;;;;;16.07;9.23;;;31.50;91.30;;;;;;1862833;75;21063;-87
2021/09/30 11:50:27;;;;;;;13.75;8.73;;;31.50;91.40;;;;;;1855555;75;21168;-87
2021/09/30 11:53:03;;;;;;;12.95;9.28;;;31.50;91.50;;;;;;1855955;76;21128;-88
2021/09/30 11:55:40;;;;;;;9.75;8.05;;;31.40;91.50;;;;;;1852421;77;21141;-87
2021/09/30 11:58:07;;;;;;;11.45;9.08;;;31.40;91.50;;;;;;1883603;74;21188;-86
2021/09/30 12:00:38;;;;;;;12.25;8.88;;;31.40;91.60;;;;;;1876774;74;21098;-86
2021/09/30 12:03:10;;;;;;;12.03;9.50;;;31.40;91.70;;;;;;1855674;74;21559;-86
2021/09/30 12:05:41;;;;;;;12.47;9.28;;;31.30;91.70;;;;;;1884877;75;21139;-87
2021/09/30 12:08:15;;;;;;;11.25;8.55;;;31.40;91.90;;;;;;1878254;74;21154;-84
2021/09/30 12:10:46;;;;;;;13.25;8.78;;;31.30;91.90;;;;;;1842904;76;21669;-85
2021/09/30 12:13:20;;;;;;;11.00;9.25;;;31.30;91.90;;;;;;1873828;75;21614;-85
2021/09/30 12:15:51;;;;;;;12.93;8.70;;;31.30;92.00;;;;;;1879642;74;21127;-84
2021/09/30 12:18:24;;;;;;;14.45;9.20;;;31.30;92.00;;;;;;1880914;74;21619;-86
2021/09/30 12:20:58;;;;;;;13.32;9.65;;;31.30;92.10;;;;;;1881493;74;21607;-85
2021/09/30 12:23:29;;;;;;;12.40;8.40;;;31.30;92.10;;;;;;1880813;73;21124;-85
2021/09/30 12:26:01;;;;;;;9.58;7.62;;;31.30;92.00;;;;;;1879085;74;21112;-84
2021/09/30 12:28:32;;;;;;;11.85;8.00;;;31.30;92.10;;;;;;1882086;74;21186;-84
2021/09/30 12:31:06;;;;;;;11.48;8.10;;;31.30;92.10;;;;;;1874422;74;21539;-86
2021/09/30 12:33:36;;;;;;;11.08;8.20;;;31.30;92.10;;;;;;1873202;75;21118;-89
2021/09/30 12:36:08;;;;;;;13.95;7.50;;;31.30;92.20;;;;;;1848085;76;21165;-90
2021/09/30 12:38:44;;;;;;;13.50;9.68;;;31.30;92.30;;;;;;1878652;74;21582;-90
2021/09/30 12:41:17;;;;;;;10.45;7.55;;;31.20;92.30;;;;;;1865159;75;21110;-90
2021/09/30 12:43:49;;;;;;;10.45;8.03;;;31.20;92.50;;;;;;1864065;75;21181;-90
2021/09/30 12:46:21;;;;;;;9.95;8.15;;;31.20;92.60;;;;;;1833713;76;21170;-91
2021/09/30 12:48:51;;;;;;;10.58;8.48;;;31.10;92.60;;;;;;1854675;76;21101;-91
2021/09/30 12:51:25;;;;;;;11.20;8.08;;;31.10;92.60;;;;;;1876674;74;21061;-90
2021/09/30 12:53:55;;;;;;;19.37;9.03;;;31.10;92.60;;;;;;1883476;74;21147;-91
2021/09/30 12:56:29;;;;;;;13.93;8.65;;;31.10;92.60;;;;;;1843633;76;21157;-91
2021/09/30 12:59:04;;;;;;;12.43;9.03;;;31.10;92.70;;;;;;1859403;75;21159;-91
2021/09/30 13:02:05;;;;;;;10.05;7.75;;;31.10;92.70;;;;;;1862803;73;21157;-92
2021/09/30 13:04:56;;;;;;;17.62;8.70;;;31.10;92.80;;;;;;1776967;75;21155;-91
2021/09/30 13:10:05;;;;;;;13.65;9.43;;;31.00;92.90;;;;;;1801679;78;21675;-90
2021/09/30 13:33:44;;;;;;;18.12;10.43;;;31.00;93.80;;;;;;1770025;78;21191;-92
2021/09/30 13:36:19;;;;;;;15.00;11.03;;;30.90;94.00;;;;;;1745146;81;21196;-90
2021/09/30 13:38:56;;;;;;;14.87;10.95;;;30.80;94.10;;;;;;1700060;82;21219;-90
2021/09/30 13:41:23;;;;;;;12.70;10.13;;;30.90;94.30;;;;;;1683285;82;21176;-90
2021/09/30 13:43:55;;;;;;;18.00;11.53;;;30.90;94.60;;;;;;1722806;83;21186;-89
2021/09/30 13:46:27;;;;;;;14.63;9.73;;;30.80;94.70;;;;;;1758974;80;21208;-90
2021/09/30 13:49:01;;;;;;;14.45;10.72;;;30.80;94.70;;;;;;1760127;79;21250;-91
2021/09/30 13:51:38;;;;;;;13.95;10.40;;;30.80;94.80;;;;;;1790800;78;21127;-90
2021/09/30 13:54:09;;;;;;;14.98;11.08;;;30.80;94.90;;;;;;1794191;77;21186;-90
2021/09/30 13:56:40;;;;;;;13.40;10.90;;;30.80;94.90;;;;;;1810172;78;21241;-90
2021/09/30 13:59:14;;;;;;;18.82;10.90;;;30.70;94.90;;;;;;1757162;80;21237;-91
2021/09/30 14:01:52;;;;;;;20.88;11.53;;;30.70;94.90;;;;;;1746881;80;21331;-90
2021/09/30 14:04:26;;;;;;;14.53;11.12;;;30.70;95.00;;;;;;1745325;78;21253;-90
2021/09/30 14:06:58;;;;;;;16.12;11.83;;;30.80;95.20;;;;;;1784227;80;21084;-90
2021/09/30 14:09:34;;;;;;;15.40;12.20;;;30.70;95.20;;;;;;1773067;79;21151;-90
2021/09/30 14:12:06;;;;;;;17.05;12.75;;;30.70;95.30;;;;;;1842293;75;21143;-91
2021/09/30 14:14:46;;;;;;;20.97;12.60;;;30.70;95.30;;;;;;1883775;74;21162;-89
2021/09/30 14:17:20;;;;;;;18.55;13.35;;;30.70;95.40;;;;;;1870136;74;21206;-90
2021/09/30 14:19:51;;;;;;;18.82;13.35;;;30.60;95.50;;;;;;1846256;75;21255;-91
2021/09/30 14:22:28;;;;;;;20.37;13.50;;;30.60;95.60;;;;;;1886270;75;21092;-92
2021/09/30 14:24:59;;;;;;;17.70;13.28;;;30.60;95.50;;;;;;1885126;75;21163;-92
2021/09/30 14:27:34;;;;;;;18.42;13.15;;;30.60;95.60;;;;;;1886981;74;21167;-90
2021/09/30 14:30:07;;;;;;;18.07;13.58;;;30.60;95.60;;;;;;1863820;74;21612;-92
2021/09/30 14:32:41;;;;;;;23.90;14.80;;;30.60;95.70;;;;;;1927230;71;21099;-90
2021/09/30 14:35:17;;;;;;;20.92;14.53;;;30.60;96.00;;;;;;1962217;70;21082;-91
2021/09/30 14:37:46;;;;;;;19.20;14.23;;;30.60;95.90;;;;;;1969572;70;21196;-92
2021/09/30 14:40:22;;;;;;;21.50;14.53;;;30.60;96.10;;;;;;1943941;74;21059;-90
2021/09/30 14:43:06;;;;;;;;;;;;;;;;;;;;;
2021/09/30 14:45:34;;;;;;;19.42;14.50;;;30.50;96.10;;;;;;1930156;71;21071;-91
2021/09/30 14:48:05;;;;;;;24.40;16.62;;;30.50;96.20;;;;;;1959844;70;21112;-93
2021/09/30 14:50:38;;;;;;;20.62;14.95;;;30.50;96.40;;;;;;1963706;70;21025;-92
2021/09/30 14:53:13;;;;;;;21.17;15.18;;;30.50;96.50;;;;;;1970388;71;21085;-90
2021/09/30 14:55:45;;;;;;;26.62;15.75;;;30.50;96.60;;;;;;1927365;72;21291;-92
2021/09/30 14:58:25;;;;;;;23.32;14.95;;;30.50;96.70;;;;;;1928711;72;21152;-90
2021/09/30 15:00:59;;;;;;;20.00;14.55;;;30.50;96.80;;;;;;1924874;72;21127;-93
2021/09/30 15:03:39;;;;;;;19.82;14.95;;;30.50;96.80;;;;;;1918195;72;21063;-90
2021/09/30 15:06:16;;;;;;;20.68;15.45;;;30.40;96.70;;;;;;1954225;71;21018;-92
2021/09/30 15:08:47;;;;;;;26.55;15.58;;;30.40;96.90;;;;;;1959245;72;21071;-91
2021/09/30 15:11:21;;;;;;;23.45;15.18;;;30.40;96.90;;;;;;1948578;70;21540;-92
2021/09/30 15:14:03;;;;;;;23.15;15.25;;;30.40;96.80;;;;;;1941930;73;21228;-91
2021/09/30 15:16:40;;;;;;;19.60;13.95;;;30.40;96.90;;;;;;1929762;73;21197;-91
2021/09/30 15:19:19;;;;;;;19.15;14.20;;;30.40;96.80;;;;;;1927234;71;21159;-90
2021/09/30 15:21:48;;;;;;;19.17;14.53;;;30.40;96.90;;;;;;1925735;74;21084;-90
2021/09/30 15:24:20;;;;;;;22.02;13.22;;;30.40;97.00;;;;;;1925677;73;21079;-90
2021/09/30 15:26:52;;;;;;;20.97;14.07;;;30.30;97.00;;;;;;1922846;73;21063;-93
2021/09/30 15:29:43;;;;;;;17.57;13.50;;;30.30;97.00;;;;;;1921299;73;21162;-90
2021/09/30 15:32:16;;;;;;;20.60;13.85;;;30.30;96.90;;;;;;1750660;81;21178;-90
2021/09/30 15:34:48;;;;;;;20.62;14.43;;;30.30;96.90;;;;;;1781381;79;21190;-90
2021/09/30 15:37:19;;;;;;;19.80;14.20;;;30.30;96.90;;;;;;1775294;80;21150;-91
2021/09/30 15:39:50;;;;;;;24.70;14.68;;;30.30;97.00;;;;;;1785451;79;21132;-90
2021/09/30 15:42:23;;;;;;;18.82;15.05;;;30.30;97.10;;;;;;1779528;78;21304;-90
2021/09/30 15:44:58;;;;;;;21.50;14.60;;;30.30;97.20;;;;;;1780818;80;21112;-91
2021/09/30 15:47:28;;;;;;;21.02;14.60;;;30.20;97.30;;;;;;1792418;78;21104;-92
2021/09/30 15:50:05;;;;;;;25.43;15.08;;;30.20;97.40;;;;;;1748373;80;21112;-92
2021/09/30 15:52:38;;;;;;;21.82;15.18;;;30.20;97.40;;;;;;1790404;78;21245;-91
2021/09/30 15:55:10;;;;;;;19.98;14.87;;;30.20;97.60;;;;;;1753080;79;21201;-91
2021/09/30 15:57:41;;;;;;;22.27;15.45;;;30.20;97.80;;;;;;1783592;78;21210;-90
2021/09/30 16:00:12;;;;;;;19.62;14.28;;;30.20;97.80;;;;;;1848918;75;21108;-91
2021/09/30 16:02:44;;;;;;;23.25;15.75;;;30.20;97.90;;;;;;1840809;75;21045;-91
2021/09/30 16:05:15;;;;;;;22.70;16.55;;;30.20;98.00;;;;;;1854359;75;21064;-91
2021/09/30 16:07:47;;;;;;;22.13;15.72;;;30.20;98.30;;;;;;1841417;75;21146;-89
2021/09/30 16:10:21;;;;;;;18.85;15.13;;;30.20;98.20;;;;;;1851591;76;21092;-90
2021/09/30 16:12:51;;;;;;;20.82;15.50;;;30.10;98.30;;;;;;1837806;77;21108;-90
2021/09/30 16:15:24;;;;;;;24.72;17.67;;;30.10;98.40;;;;;;1837527;78;21528;-92
2021/09/30 16:17:57;;;;;;;25.97;17.40;;;30.10;98.50;;;;;;1835540;76;21767;-91
2021/09/30 16:20:28;;;;;;;25.80;17.12;;;30.10;98.50;;;;;;1830699;78;21107;-92
2021/09/30 16:22:59;;;;;;;23.65;16.93;;;30.10;98.60;;;;;;1844041;76;21107;-91
2021/09/30 16:25:32;;;;;;;23.42;17.17;;;30.10;98.80;;;;;;1830417;76;21649;-93
2021/09/30 16:28:04;;;;;;;21.97;17.37;;;30.10;98.90;;;;;;1834211;76;21108;-91
2021/09/30 16:30:37;;;;;;;22.13;17.67;;;30.00;98.80;;;;;;1843254;76;21100;-92